Time,TemperatureF,DewpointF,PressureIn,WindDirection,WindDirectionDegrees,WindSpeedMPH,WindSpeedGustMPH,Humidity,HourlyPrecipIn,Conditions,Clouds,dailyrainin,SoftwareType,DateUTC
2013-01-14 00:15:00,48.5,46.0,29.71,SSE,150,0.0,8.0,91,0.00,,,0.01,weatherlink.com 1.10,2013-01-14 05:15:00,
2013-01-14 00:30:00,48.3,45.0,29.71,ESE,103,1.0,6.0,89,0.00,,,0.00,weatherlink.com 1.10,2013-01-14 05:30:00,
2013-01-14 00:45:00,47.0,44.0,29.71,SE,128,5.0,5.0,90,0.00,,,0.00,weatherlink.com 1.10,2013-01-14 05:45:00,
2013-01-14 01:00:00,48.3,46.0,29.71,ESE,115,2.0,5.0,91,0.00,,,0.00,weatherlink.com 1.10,2013-01-14 06:00:00,
2013-01-14 01:15:00,47.4,45.0,29.69,ESE,115,0.0,2.0,92,0.00,,,0.00,weatherlink.com 1.10,2013-01-14 06:15:00,
2013-01-14 01:30:00,47.9,46.0,29.68,South,190,1.0,4.0,93,0.00,,,0.00,weatherlink.com 1.10,2013-01-14 06:30:00,
2013-01-14 01:45:00,48.3,46.0,29.68,SSE,150,0.0,2.0,92,0.00,,,0.00,weatherlink.com 1.10,2013-01-14 06:45:00,
2013-01-14 02:00:00,48.8,47.0,29.68,South,177,1.0,4.0,92,0.00,,,0.00,weatherlink.com 1.10,2013-01-14 07:00:00,
2013-01-14 02:15:00,49.2,47.0,29.67,SE,140,1.0,7.0,90,0.00,,,0.00,weatherlink.com 1.10,2013-01-14 07:15:00,
2013-01-14 02:30:00,48.6,46.0,29.66,SE,134,2.0,5.0,89,0.00,,,0.00,weatherlink.com 1.10,2013-01-14 07:30:00,
2013-01-14 02:45:00,48.2,46.0,29.65,SE,126,0.0,6.0,90,0.00,,,0.00,weatherlink.com 1.10,2013-01-14 07:45:00,
2013-01-14 03:00:00,48.0,46.0,29.63,WSW,244,2.0,3.0,91,0.00,,,0.00,weatherlink.com 1.10,2013-01-14 08:00:00,
2013-01-14 03:15:00,48.6,46.0,29.60,East,99,0.0,3.0,91,0.00,,,0.00,weatherlink.com 1.10,2013-01-14 08:15:00,
2013-01-14 03:30:00,49.2,47.0,29.62,SE,128,1.0,4.0,90,0.00,,,0.00,weatherlink.com 1.10,2013-01-14 08:30:00,
2013-01-14 03:45:00,48.5,46.0,29.60,NE,49,0.0,4.0,90,0.00,,,0.00,weatherlink.com 1.10,2013-01-14 08:45:00,
2013-01-14 04:00:00,46.8,44.0,29.62,SE,142,4.0,7.0,88,0.00,,,0.00,weatherlink.com 1.10,2013-01-14 09:00:00,
2013-01-14 04:15:00,44.2,42.0,29.62,ESE,109,3.0,11.0,90,0.00,,,0.00,weatherlink.com 1.10,2013-01-14 09:15:00,
2013-01-14 04:30:00,43.2,41.0,29.61,East,94,3.0,8.0,93,0.00,,,0.00,weatherlink.com 1.10,2013-01-14 09:30:00,
2013-01-14 04:45:00,43.6,42.0,29.61,SSE,163,3.0,8.0,95,0.00,,,0.00,weatherlink.com 1.10,2013-01-14 09:45:00,
2013-01-14 05:00:00,46.1,45.0,29.61,ESE,102,4.0,17.0,96,0.00,,,0.00,weatherlink.com 1.10,2013-01-14 10:00:00,
2013-01-14 05:15:00,47.1,44.0,29.61,SSW,192,5.0,20.0,90,0.00,,,0.00,weatherlink.com 1.10,2013-01-14 10:15:00,
2013-01-14 05:30:00,47.3,44.0,29.62,SE,130,2.0,11.0,88,0.00,,,0.00,weatherlink.com 1.10,2013-01-14 10:30:00,
2013-01-14 05:45:00,47.9,44.0,29.62,SSE,150,3.0,18.0,87,0.00,,,0.00,weatherlink.com 1.10,2013-01-14 10:45:00,
2013-01-14 06:00:00,48.0,44.0,29.62,SSE,148,1.0,7.0,87,0.00,,,0.00,weatherlink.com 1.10,2013-01-14 11:00:00,
2013-01-14 06:15:00,48.3,44.0,29.64,SW,229,3.0,9.0,86,0.00,,,0.00,weatherlink.com 1.10,2013-01-14 11:15:00,
2013-01-14 06:30:00,48.3,44.0,29.66,NW,313,8.0,8.0,86,0.00,,,0.00,weatherlink.com 1.10,2013-01-14 11:30:00,
2013-01-14 06:45:00,47.7,44.0,29.69,West,263,5.0,10.0,87,0.00,,,0.00,weatherlink.com 1.10,2013-01-14 11:45:00,
2013-01-14 07:00:00,46.4,44.0,29.71,SSE,150,1.0,9.0,90,0.00,,,0.00,weatherlink.com 1.10,2013-01-14 12:00:00,
2013-01-14 07:15:00,45.5,43.0,29.71,West,271,0.0,5.0,92,0.00,,,0.00,weatherlink.com 1.10,2013-01-14 12:15:00,
2013-01-14 07:30:00,44.9,43.0,29.73,SE,146,1.0,4.0,93,0.00,,,0.00,weatherlink.com 1.10,2013-01-14 12:30:00,
2013-01-14 07:45:00,44.6,43.0,29.75,SE,136,3.0,7.0,93,0.00,,,0.00,weatherlink.com 1.10,2013-01-14 12:45:00,
2013-01-14 08:01:00,44.5,43.0,29.76,ESE,109,3.0,8.0,94,0.00,,,0.00,weatherlink.com 1.10,2013-01-14 13:01:00,
2013-01-14 08:16:00,44.5,43.0,29.76,ESE,116,0.0,2.0,95,0.00,,,0.00,weatherlink.com 1.10,2013-01-14 13:16:00,
2013-01-14 08:31:00,44.5,43.0,29.77,NNW,347,0.0,3.0,95,0.00,,,0.00,weatherlink.com 1.10,2013-01-14 13:31:00,
2013-01-14 08:46:00,44.3,43.0,29.80,ESE,110,0.0,5.0,95,0.00,,,0.00,weatherlink.com 1.10,2013-01-14 13:46:00,
2013-01-14 09:01:00,44.3,43.0,29.80,ENE,74,0.0,4.0,94,0.00,,,0.00,weatherlink.com 1.10,2013-01-14 14:01:00,
2013-01-14 09:16:00,44.9,43.0,29.81,West,271,4.0,15.0,93,0.00,,,0.00,weatherlink.com 1.10,2013-01-14 14:16:00,
2013-01-14 09:31:00,44.2,41.0,29.82,NW,305,3.0,12.0,87,0.00,,,0.00,weatherlink.com 1.10,2013-01-14 14:31:00,
2013-01-14 09:46:00,43.9,38.0,29.84,West,271,10.0,16.0,80,0.00,,,0.00,weatherlink.com 1.10,2013-01-14 14:46:00,
2013-01-14 10:01:00,43.5,36.0,29.84,West,275,11.0,21.0,75,0.00,,,0.00,weatherlink.com 1.10,2013-01-14 15:01:00,
2013-01-14 10:16:00,43.6,35.0,29.86,WNW,301,6.0,17.0,73,0.00,,,0.00,weatherlink.com 1.10,2013-01-14 15:16:00,
2013-01-14 10:31:00,43.3,34.0,29.85,WSW,252,8.0,17.0,70,0.00,,,0.00,weatherlink.com 1.10,2013-01-14 15:31:00,
2013-01-14 10:46:00,43.3,33.0,29.87,NW,320,5.0,18.0,68,0.00,,,0.00,weatherlink.com 1.10,2013-01-14 15:46:00,
2013-01-14 11:01:00,43.1,33.0,29.88,SW,236,6.0,16.0,68,0.00,,,0.00,weatherlink.com 1.10,2013-01-14 16:01:00,
2013-01-14 11:16:00,42.8,32.0,29.89,WNW,292,9.0,28.0,66,0.00,,,0.00,weatherlink.com 1.10,2013-01-14 16:16:00,
2013-01-14 11:31:00,42.1,32.0,29.90,NW,315,5.0,13.0,68,0.00,,,0.00,weatherlink.com 1.10,2013-01-14 16:31:00,
2013-01-14 11:46:00,42.1,31.0,29.91,WNW,296,5.0,13.0,66,0.00,,,0.00,weatherlink.com 1.10,2013-01-14 16:46:00,
2013-01-14 12:01:00,41.3,29.0,29.91,SW,216,5.0,11.0,62,0.00,,,0.00,weatherlink.com 1.10,2013-01-14 17:01:00,
2013-01-14 12:16:00,41.6,28.0,29.91,WNW,288,6.0,14.0,59,0.00,,,0.00,weatherlink.com 1.10,2013-01-14 17:16:00,
2013-01-14 12:31:00,41.3,28.0,29.92,West,275,5.0,17.0,59,0.00,,,0.00,weatherlink.com 1.10,2013-01-14 17:31:00,
2013-01-14 12:46:00,41.1,28.0,29.93,WNW,296,12.0,18.0,61,0.00,,,0.00,weatherlink.com 1.10,2013-01-14 17:46:00,
2013-01-14 13:01:00,40.1,27.0,29.94,SSW,210,7.0,17.0,61,0.00,,,0.00,weatherlink.com 1.10,2013-01-14 18:01:00,
2013-01-14 13:16:00,39.6,27.0,29.95,WNW,298,1.0,16.0,60,0.00,,,0.00,weatherlink.com 1.10,2013-01-14 18:16:00,
2013-01-14 13:31:00,39.6,25.0,29.95,WNW,285,6.0,14.0,57,0.00,,,0.00,weatherlink.com 1.10,2013-01-14 18:31:00,
2013-01-14 13:46:00,39.1,24.0,29.96,NNW,333,6.0,17.0,56,0.00,,,0.00,weatherlink.com 1.10,2013-01-14 18:46:00,
2013-01-14 14:01:00,38.2,25.0,29.97,WNW,289,3.0,11.0,60,0.00,,,0.00,weatherlink.com 1.10,2013-01-14 19:01:00,
2013-01-14 14:16:00,38.2,25.0,29.97,WNW,282,5.0,11.0,59,0.00,,,0.00,weatherlink.com 1.10,2013-01-14 19:16:00,
2013-01-14 14:31:00,38.0,25.0,29.98,WNW,282,6.0,10.0,61,0.00,,,0.00,weatherlink.com 1.10,2013-01-14 19:31:00,
2013-01-14 14:46:00,38.0,25.0,29.98,West,269,6.0,10.0,60,0.00,,,0.00,weatherlink.com 1.10,2013-01-14 19:46:00,
2013-01-14 15:01:00,38.5,25.0,29.99,WSW,250,5.0,8.0,59,0.00,,,0.00,weatherlink.com 1.10,2013-01-14 20:01:00,
2013-01-14 15:16:00,38.2,25.0,30.00,West,281,7.0,10.0,59,0.00,,,0.00,weatherlink.com 1.10,2013-01-14 20:16:00,
2013-01-14 15:31:00,37.6,24.0,30.01,WNW,296,7.0,10.0,58,0.00,,,0.00,weatherlink.com 1.10,2013-01-14 20:31:00,
2013-01-14 15:46:00,37.3,24.0,30.01,WNW,288,4.0,10.0,60,0.00,,,0.00,weatherlink.com 1.10,2013-01-14 20:46:00,
2013-01-14 16:01:00,36.6,23.0,30.02,WNW,282,4.0,9.0,59,0.00,,,0.00,weatherlink.com 1.10,2013-01-14 21:01:00,
2013-01-14 16:16:00,36.6,23.0,30.02,NW,306,6.0,8.0,59,0.00,,,0.00,weatherlink.com 1.10,2013-01-14 21:16:00,
2013-01-14 16:31:00,36.2,24.0,30.02,NW,306,2.0,5.0,62,0.00,,,0.00,weatherlink.com 1.10,2013-01-14 21:31:00,
2013-01-14 16:46:00,35.5,24.0,30.02,West,271,3.0,7.0,64,0.00,,,0.00,weatherlink.com 1.10,2013-01-14 21:46:00,
2013-01-14 17:01:00,35.3,23.0,30.02,WNW,298,3.0,6.0,62,0.00,,,0.00,weatherlink.com 1.10,2013-01-14 22:01:00,
2013-01-14 17:16:00,35.0,23.0,30.02,WNW,286,1.0,8.0,62,0.00,,,0.00,weatherlink.com 1.10,2013-01-14 22:16:00,
2013-01-14 17:31:00,35.0,24.0,30.02,WNW,293,2.0,5.0,64,0.00,,,0.00,weatherlink.com 1.10,2013-01-14 22:31:00,
2013-01-14 17:47:00,34.4,23.0,30.02,NW,304,2.0,7.0,63,0.00,,,0.00,weatherlink.com 1.10,2013-01-14 22:47:00,
2013-01-14 18:02:00,34.3,23.0,30.01,SW,234,0.0,3.0,63,0.00,,,0.00,weatherlink.com 1.10,2013-01-14 23:02:00,
2013-01-14 18:17:00,34.6,23.0,30.02,West,278,2.0,5.0,64,0.00,,,0.00,weatherlink.com 1.10,2013-01-14 23:17:00,
2013-01-14 18:32:00,34.1,25.0,30.03,West,265,1.0,10.0,68,0.00,,,0.00,weatherlink.com 1.10,2013-01-14 23:32:00,
2013-01-14 18:47:00,33.8,25.0,30.04,NW,318,3.0,4.0,71,0.00,,,0.00,weatherlink.com 1.10,2013-01-14 23:47:00,
2013-01-14 19:02:00,33.2,25.0,30.05,West,277,2.0,6.0,72,0.00,,,0.00,weatherlink.com 1.10,2013-01-15 00:02:00,
2013-01-14 19:17:00,32.8,25.0,30.07,NNW,331,0.0,6.0,73,0.00,,,0.00,weatherlink.com 1.10,2013-01-15 00:17:00,
2013-01-14 19:32:00,32.7,25.0,30.08,WSW,253,3.0,3.0,74,0.00,,,0.00,weatherlink.com 1.10,2013-01-15 00:32:00,
2013-01-14 19:47:00,32.5,25.0,30.07,West,278,2.0,3.0,73,0.00,,,0.00,weatherlink.com 1.10,2013-01-15 00:47:00,
2013-01-14 20:02:00,32.4,26.0,30.09,West,278,3.0,3.0,76,0.00,,,0.00,weatherlink.com 1.10,2013-01-15 01:02:00,
2013-01-14 20:17:00,32.2,25.0,30.09,West,264,1.0,4.0,74,0.00,,,0.00,weatherlink.com 1.10,2013-01-15 01:17:00,
2013-01-14 20:32:00,32.2,25.0,30.11,West,263,0.0,0.0,74,0.00,,,0.00,weatherlink.com 1.10,2013-01-15 01:32:00,
2013-01-14 20:47:00,32.1,25.0,30.11,WSW,257,2.0,4.0,74,0.00,,,0.00,weatherlink.com 1.10,2013-01-15 01:47:00,
2013-01-14 21:02:00,31.9,24.0,30.11,WSW,246,1.0,4.0,73,0.00,,,0.00,weatherlink.com 1.10,2013-01-15 02:02:00,
2013-01-14 21:17:00,32.1,24.0,30.09,NW,313,0.0,3.0,73,0.00,,,0.00,weatherlink.com 1.10,2013-01-15 02:17:00,
2013-01-14 21:32:00,31.9,24.0,30.08,North,360,1.0,3.0,72,0.00,,,0.00,weatherlink.com 1.10,2013-01-15 02:32:00,
2013-01-14 21:47:00,31.9,25.0,30.09,WNW,295,0.0,2.0,75,0.00,,,0.00,weatherlink.com 1.10,2013-01-15 02:47:00,
2013-01-14 22:02:00,31.6,24.0,30.08,WNW,295,1.0,1.0,74,0.00,,,0.00,weatherlink.com 1.10,2013-01-15 03:02:00,
2013-01-14 22:17:00,31.5,25.0,30.07,NW,318,0.0,3.0,76,0.00,,,0.00,weatherlink.com 1.10,2013-01-15 03:17:00,
2013-01-14 22:32:00,31.3,24.0,30.08,NW,318,1.0,2.0,75,0.00,,,0.00,weatherlink.com 1.10,2013-01-15 03:32:00,
2013-01-14 22:47:00,31.2,24.0,30.06,NW,318,0.0,2.0,74,0.00,,,0.00,weatherlink.com 1.10,2013-01-15 03:47:00,
2013-01-14 23:02:00,31.2,24.0,30.08,WSW,242,1.0,3.0,74,0.00,,,0.00,weatherlink.com 1.10,2013-01-15 04:02:00,
2013-01-14 23:17:00,31.2,24.0,30.11,WSW,243,0.0,3.0,74,0.00,,,0.00,weatherlink.com 1.10,2013-01-15 04:17:00,
2013-01-14 23:32:00,31.2,24.0,30.11,WSW,243,0.0,2.0,74,0.00,,,0.00,weatherlink.com 1.10,2013-01-15 04:32:00,
2013-01-14 23:47:00,31.0,24.0,30.11,WSW,243,0.0,2.0,74,0.00,,,0.00,weatherlink.com 1.10,2013-01-15 04:47:00,